sensor_id;sensor_type;location;lat;lon;timestamp;pressure;altitude;pressure_sealevel;temperature;humidity
74975;BME280;68459;50.836;19.138;2023-04-25T00:00:59;97489.13;;;10.55;70.51
74975;BME280;68459;50.836;19.138;2023-04-25T00:04:05;97485.84;;;10.53;71.10
74975;BME280;68459;50.836;19.138;2023-04-25T00:07:09;97488.00;;;10.51;70.71
74975;BME280;68459;50.836;19.138;2023-04-25T00:10:13;97489.63;;;10.52;70.07
74975;BME280;68459;50.836;19.138;2023-04-25T00:13:17;97494.50;;;10.55;70.38
74975;BME280;68459;50.836;19.138;2023-04-25T00:16:21;97491.00;;;10.55;70.32
74975;BME280;68459;50.836;19.138;2023-04-25T00:19:27;97498.84;;;10.56;70.17
74975;BME280;68459;50.836;19.138;2023-04-25T00:22:31;97494.25;;;10.57;70.41
74975;BME280;68459;50.836;19.138;2023-04-25T00:25:36;97492.38;;;10.57;70.97
74975;BME280;68459;50.836;19.138;2023-04-25T00:28:40;97498.84;;;10.56;70.16
74975;BME280;68459;50.836;19.138;2023-04-25T00:31:44;97500.72;;;10.56;70.74
74975;BME280;68459;50.836;19.138;2023-04-25T00:34:49;97495.56;;;10.54;71.25
74975;BME280;68459;50.836;19.138;2023-04-25T00:37:54;97495.09;;;10.57;70.44
74975;BME280;68459;50.836;19.138;2023-04-25T00:40:58;97498.84;;;10.56;70.52
74975;BME280;68459;50.836;19.138;2023-04-25T00:44:03;97504.22;;;10.56;70.74
74975;BME280;68459;50.836;19.138;2023-04-25T00:47:11;97497.78;;;10.57;71.40
74975;BME280;68459;50.836;19.138;2023-04-25T00:50:16;97501.84;;;10.60;71.76
74975;BME280;68459;50.836;19.138;2023-04-25T00:53:20;97505.88;;;10.57;71.63
74975;BME280;68459;50.836;19.138;2023-04-25T00:56:25;97498.84;;;10.56;71.11
74975;BME280;68459;50.836;19.138;2023-04-25T00:59:29;97499.91;;;10.55;71.61
74975;BME280;68459;50.836;19.138;2023-04-25T01:02:34;97491.00;;;10.55;71.55
74975;BME280;68459;50.836;19.138;2023-04-25T01:05:41;97495.56;;;10.54;71.61
74975;BME280;68459;50.836;19.138;2023-04-25T01:08:45;97495.56;;;10.54;71.17
74975;BME280;68459;50.836;19.138;2023-04-25T01:11:49;97494.50;;;10.55;70.79
74975;BME280;68459;50.836;19.138;2023-04-25T01:14:54;97492.38;;;10.57;71.08
74975;BME280;68459;50.836;19.138;2023-04-25T01:17:58;97499.66;;;10.57;71.70
74975;BME280;68459;50.836;19.138;2023-04-25T01:21:08;97506.88;;;10.51;71.07
74975;BME280;68459;50.836;19.138;2023-04-25T01:24:13;97507.38;;;10.48;71.06
74975;BME280;68459;50.836;19.138;2023-04-25T01:27:17;97504.03;;;10.41;70.47
74975;BME280;68459;50.836;19.138;2023-04-25T01:30:25;97498.59;;;10.36;71.50
74975;BME280;68459;50.836;19.138;2023-04-25T01:33:30;97502.13;;;10.37;71.29
74975;BME280;68459;50.836;19.138;2023-04-25T01:36:36;97498.38;;;10.38;70.66
74975;BME280;68459;50.836;19.138;2023-04-25T01:39:40;97504.56;;;10.38;70.80
74975;BME280;68459;50.836;19.138;2023-04-25T01:42:45;97500.00;;;10.39;70.86
74975;BME280;68459;50.836;19.138;2023-04-25T01:45:49;97504.00;;;10.36;71.80
74975;BME280;68459;50.836;19.138;2023-04-25T01:48:54;97507.19;;;10.33;71.14
74975;BME280;68459;50.836;19.138;2023-04-25T01:51:59;97516.09;;;10.33;71.69
74975;BME280;68459;50.836;19.138;2023-04-25T01:55:03;97512.00;;;10.31;71.84
74975;BME280;68459;50.836;19.138;2023-04-25T01:58:10;97509.50;;;10.24;71.04
74975;BME280;68459;50.836;19.138;2023-04-25T02:01:32;97523.22;;;10.23;71.92
74975;BME280;68459;50.836;19.138;2023-04-25T02:04:49;97516.09;;;10.17;71.45
74975;BME280;68459;50.836;19.138;2023-04-25T02:07:55;97513.19;;;10.01;71.58
74975;BME280;68459;50.836;19.138;2023-04-25T02:11:00;97504.97;;;9.91;71.30
74975;BME280;68459;50.836;19.138;2023-04-25T02:14:12;97510.53;;;9.85;71.56
74975;BME280;68459;50.836;19.138;2023-04-25T02:17:25;97514.22;;;9.79;71.02
74975;BME280;68459;50.836;19.138;2023-04-25T02:20:29;97514.44;;;9.77;70.91
74975;BME280;68459;50.836;19.138;2023-04-25T02:23:35;97512.25;;;9.74;71.40
74975;BME280;68459;50.836;19.138;2023-04-25T02:26:38;97521.97;;;9.75;70.76
74975;BME280;68459;50.836;19.138;2023-04-25T02:29:43;97529.97;;;9.70;71.47
74975;BME280;68459;50.836;19.138;2023-04-25T02:32:47;97517.47;;;9.64;71.07
74975;BME280;68459;50.836;19.138;2023-04-25T02:35:51;97519.34;;;9.63;71.15
74975;BME280;68459;50.836;19.138;2023-04-25T02:38:57;97512.09;;;9.64;70.97
74975;BME280;68459;50.836;19.138;2023-04-25T02:42:02;97522.53;;;9.60;71.61
74975;BME280;68459;50.836;19.138;2023-04-25T02:45:07;97523.06;;;9.57;72.14
74975;BME280;68459;50.836;19.138;2023-04-25T02:48:11;97516.28;;;9.55;71.23
74975;BME280;68459;50.836;19.138;2023-04-25T02:51:15;97515.22;;;9.56;70.77
74975;BME280;68459;50.836;19.138;2023-04-25T02:54:20;97514.06;;;9.52;70.92
74975;BME280;68459;50.836;19.138;2023-04-25T02:57:24;97522.13;;;9.52;70.72
74975;BME280;68459;50.836;19.138;2023-04-25T03:00:28;97526.13;;;9.49;71.27
74975;BME280;68459;50.836;19.138;2023-04-25T03:03:32;97517.47;;;9.47;71.14
74975;BME280;68459;50.836;19.138;2023-04-25T03:06:36;97518.81;;;9.45;71.00
74975;BME280;68459;50.836;19.138;2023-04-25T03:09:41;97516.66;;;9.47;71.21
74975;BME280;68459;50.836;19.138;2023-04-25T03:12:44;97515.03;;;9.46;71.25
74975;BME280;68459;50.836;19.138;2023-04-25T03:15:48;97520.91;;;9.43;71.68
74975;BME280;68459;50.836;19.138;2023-04-25T03:18:53;97520.50;;;9.34;71.77
74975;BME280;68459;50.836;19.138;2023-04-25T03:21:57;97517.50;;;9.31;71.99
74975;BME280;68459;50.836;19.138;2023-04-25T03:25:03;97516.69;;;9.30;71.52
74975;BME280;68459;50.836;19.138;2023-04-25T03:28:07;97520.41;;;9.29;71.84
74975;BME280;68459;50.836;19.138;2023-04-25T03:31:12;97520.66;;;9.27;72.14
74975;BME280;68459;50.836;19.138;2023-04-25T03:34:15;97524.41;;;9.26;71.68
74975;BME280;68459;50.836;19.138;2023-04-25T03:37:19;97529.22;;;9.24;71.60
74975;BME280;68459;50.836;19.138;2023-04-25T03:40:24;97522.38;;;9.17;72.10
74975;BME280;68459;50.836;19.138;2023-04-25T03:43:54;97535.25;;;9.15;71.74
74975;BME280;68459;50.836;19.138;2023-04-25T03:46:58;97537.81;;;9.10;71.29
74975;BME280;68459;50.836;19.138;2023-04-25T03:50:02;97535.38;;;9.08;71.93
74975;BME280;68459;50.836;19.138;2023-04-25T03:53:06;97530.22;;;9.07;71.67
74975;BME280;68459;50.836;19.138;2023-04-25T03:56:32;97536.44;;;9.07;71.65
74975;BME280;68459;50.836;19.138;2023-04-25T03:59:49;97538.56;;;9.05;70.83
74975;BME280;68459;50.836;19.138;2023-04-25T04:02:53;97538.31;;;9.07;71.00
74975;BME280;68459;50.836;19.138;2023-04-25T04:05:57;97549.56;;;9.04;71.16
74975;BME280;68459;50.836;19.138;2023-04-25T04:09:02;97543.25;;;8.98;71.59
74975;BME280;68459;50.836;19.138;2023-04-25T04:12:11;97546.19;;;8.97;71.38
74975;BME280;68459;50.836;19.138;2023-04-25T04:15:16;97567.47;;;8.98;71.27
74975;BME280;68459;50.836;19.138;2023-04-25T04:18:21;97550.75;;;8.96;71.11
74975;BME280;68459;50.836;19.138;2023-04-25T04:21:25;97560.22;;;8.99;70.46
74975;BME280;68459;50.836;19.138;2023-04-25T04:24:29;97559.41;;;8.98;70.84
74975;BME280;68459;50.836;19.138;2023-04-25T04:27:38;97558.59;;;8.98;70.71
74975;BME280;68459;50.836;19.138;2023-04-25T04:31:01;97566.66;;;8.98;70.74
74975;BME280;68459;50.836;19.138;2023-04-25T04:34:05;97563.38;;;8.96;70.87
74975;BME280;68459;50.836;19.138;2023-04-25T04:37:09;97565.41;;;8.88;70.28
74975;BME280;68459;50.836;19.138;2023-04-25T04:40:16;97558.16;;;8.89;70.10
74975;BME280;68459;50.836;19.138;2023-04-25T04:43:29;97558.97;;;8.89;70.53
74975;BME280;68459;50.836;19.138;2023-04-25T04:46:57;97552.44;;;8.85;70.43
74975;BME280;68459;50.836;19.138;2023-04-25T04:50:04;97558.63;;;8.86;70.05
74975;BME280;68459;50.836;19.138;2023-04-25T04:53:35;97566.34;;;8.82;70.39
74975;BME280;68459;50.836;19.138;2023-04-25T04:56:49;97565.88;;;8.85;70.46
74975;BME280;68459;50.836;19.138;2023-04-25T05:00:15;97576.63;;;8.85;69.99
74975;BME280;68459;50.836;19.138;2023-04-25T05:03:19;97582.47;;;8.82;69.88
74975;BME280;68459;50.836;19.138;2023-04-25T05:06:45;97574.66;;;8.81;69.90
74975;BME280;68459;50.836;19.138;2023-04-25T05:10:13;97588.59;;;8.78;69.70
74975;BME280;68459;50.836;19.138;2023-04-25T05:13:37;97584.28;;;8.77;69.79
74975;BME280;68459;50.836;19.138;2023-04-25T05:17:14;97588.94;;;8.70;70.07
74975;BME280;68459;50.836;19.138;2023-04-25T05:20:41;97589.19;;;8.68;70.31
74975;BME280;68459;50.836;19.138;2023-04-25T05:24:03;97590.69;;;8.76;69.83
74975;BME280;68459;50.836;19.138;2023-04-25T05:27:26;97596.75;;;8.83;69.45
74975;BME280;68459;50.836;19.138;2023-04-25T05:30:41;97590.44;;;8.89;69.48
74975;BME280;68459;50.836;19.138;2023-04-25T05:34:02;97597.63;;;9.00;69.31
74975;BME280;68459;50.836;19.138;2023-04-25T05:37:16;97600.97;;;9.07;69.14
74975;BME280;68459;50.836;19.138;2023-04-25T05:40:30;97601.09;;;9.12;68.97
74975;BME280;68459;50.836;19.138;2023-04-25T05:43:45;97597.34;;;9.13;68.32
74975;BME280;68459;50.836;19.138;2023-04-25T05:47:12;97593.13;;;9.17;67.99
74975;BME280;68459;50.836;19.138;2023-04-25T05:50:36;97612.72;;;9.29;68.33
74975;BME280;68459;50.836;19.138;2023-04-25T05:53:58;97589.63;;;9.34;68.32
74975;BME280;68459;50.836;19.138;2023-04-25T05:57:02;97598.03;;;9.37;67.89
74975;BME280;68459;50.836;19.138;2023-04-25T06:00:08;97594.06;;;9.40;67.42
74975;BME280;68459;50.836;19.138;2023-04-25T06:03:15;97607.03;;;9.43;67.21
74975;BME280;68459;50.836;19.138;2023-04-25T06:06:23;97602.94;;;9.40;67.74
74975;BME280;68459;50.836;19.138;2023-04-25T06:09:28;97610.16;;;9.51;67.29
74975;BME280;68459;50.836;19.138;2023-04-25T06:12:32;97611.88;;;9.57;67.03
74975;BME280;68459;50.836;19.138;2023-04-25T06:15:38;97606.81;;;9.61;66.87
74975;BME280;68459;50.836;19.138;2023-04-25T06:18:41;97622.56;;;9.69;67.18
74975;BME280;68459;50.836;19.138;2023-04-25T06:21:46;97590.56;;;9.73;66.26
74975;BME280;68459;50.836;19.138;2023-04-25T06:24:50;97596.88;;;9.78;66.61
74975;BME280;68459;50.836;19.138;2023-04-25T06:27:54;97606.50;;;9.91;65.81
74975;BME280;68459;50.836;19.138;2023-04-25T06:30:58;97603.66;;;9.97;65.28
74975;BME280;68459;50.836;19.138;2023-04-25T06:34:01;97603.09;;;9.95;66.16
74975;BME280;68459;50.836;19.138;2023-04-25T06:37:10;97609.19;;;10.08;65.09
74975;BME280;68459;50.836;19.138;2023-04-25T06:40:14;97610.59;;;10.27;65.23
74975;BME280;68459;50.836;19.138;2023-04-25T06:43:19;97608.59;;;10.39;64.61
74975;BME280;68459;50.836;19.138;2023-04-25T06:46:25;97610.50;;;10.39;64.34
74975;BME280;68459;50.836;19.138;2023-04-25T06:49:32;97622.72;;;10.46;64.68
74975;BME280;68459;50.836;19.138;2023-04-25T06:52:37;97614.56;;;10.41;64.02
74975;BME280;68459;50.836;19.138;2023-04-25T06:55:42;97619.91;;;10.36;64.14
74975;BME280;68459;50.836;19.138;2023-04-25T06:58:50;97609.75;;;10.43;64.17
74975;BME280;68459;50.836;19.138;2023-04-25T07:02:14;97602.59;;;10.54;64.37
74975;BME280;68459;50.836;19.138;2023-04-25T07:05:18;97610.84;;;10.64;63.72
74975;BME280;68459;50.836;19.138;2023-04-25T07:08:24;97606.44;;;10.58;63.48
74975;BME280;68459;50.836;19.138;2023-04-25T07:11:27;97603.75;;;10.58;63.86
74975;BME280;68459;50.836;19.138;2023-04-25T07:14:31;97603.06;;;10.67;63.58
74975;BME280;68459;50.836;19.138;2023-04-25T07:17:35;97602.34;;;10.55;63.53
74975;BME280;68459;50.836;19.138;2023-04-25T07:20:39;97610.69;;;10.54;63.08
74975;BME280;68459;50.836;19.138;2023-04-25T07:23:44;97609.38;;;10.56;63.28
74975;BME280;68459;50.836;19.138;2023-04-25T07:26:53;97604.41;;;10.65;63.70
74975;BME280;68459;50.836;19.138;2023-04-25T07:30:11;97610.84;;;10.86;63.29
74975;BME280;68459;50.836;19.138;2023-04-25T07:33:15;97613.25;;;11.04;62.62
74975;BME280;68459;50.836;19.138;2023-04-25T07:36:19;97623.66;;;11.17;62.32
74975;BME280;68459;50.836;19.138;2023-04-25T07:39:25;97620.41;;;11.20;61.23
74975;BME280;68459;50.836;19.138;2023-04-25T07:42:29;97618.84;;;11.24;61.87
74975;BME280;68459;50.836;19.138;2023-04-25T07:45:33;97618.28;;;11.22;61.77
74975;BME280;68459;50.836;19.138;2023-04-25T07:48:37;97612.50;;;11.35;61.75
74975;BME280;68459;50.836;19.138;2023-04-25T07:51:41;97611.81;;;11.45;60.69
74975;BME280;68459;50.836;19.138;2023-04-25T07:54:49;97617.94;;;11.40;60.47
74975;BME280;68459;50.836;19.138;2023-04-25T07:57:59;97623.25;;;11.30;60.25
74975;BME280;68459;50.836;19.138;2023-04-25T08:01:05;97628.59;;;11.25;60.80
74975;BME280;68459;50.836;19.138;2023-04-25T08:04:09;97615.16;;;11.30;60.92
74975;BME280;68459;50.836;19.138;2023-04-25T08:07:39;97623.94;;;11.48;60.74
74975;BME280;68459;50.836;19.138;2023-04-25T08:10:45;97631.09;;;11.59;60.53
74975;BME280;68459;50.836;19.138;2023-04-25T08:13:51;97631.00;;;11.75;60.18
74975;BME280;68459;50.836;19.138;2023-04-25T08:16:56;97626.72;;;11.80;60.34
74975;BME280;68459;50.836;19.138;2023-04-25T08:20:01;97622.31;;;11.73;59.89
74975;BME280;68459;50.836;19.138;2023-04-25T08:23:08;97620.84;;;11.61;59.88
74975;BME280;68459;50.836;19.138;2023-04-25T08:26:24;97623.25;;;11.57;59.99
74975;BME280;68459;50.836;19.138;2023-04-25T08:29:28;97623.25;;;11.57;58.56
74975;BME280;68459;50.836;19.138;2023-04-25T08:32:32;97621.88;;;11.55;59.33
74975;BME280;68459;50.836;19.138;2023-04-25T08:36:08;97620.50;;;11.52;59.73
74975;BME280;68459;50.836;19.138;2023-04-25T08:39:12;97626.09;;;11.46;59.05
74975;BME280;68459;50.836;19.138;2023-04-25T08:42:33;97643.31;;;11.39;57.72
74975;BME280;68459;50.836;19.138;2023-04-25T08:45:39;97644.53;;;11.27;58.33
74975;BME280;68459;50.836;19.138;2023-04-25T08:48:49;97631.19;;;11.15;58.65
74975;BME280;68459;50.836;19.138;2023-04-25T08:52:00;97639.19;;;11.10;57.94
74975;BME280;68459;50.836;19.138;2023-04-25T08:55:09;97657.38;;;11.20;58.36
74975;BME280;68459;50.836;19.138;2023-04-25T08:58:18;97640.94;;;11.21;58.27
74975;BME280;68459;50.836;19.138;2023-04-25T09:01:22;97649.44;;;11.30;57.63
74975;BME280;68459;50.836;19.138;2023-04-25T09:04:29;97648.88;;;11.28;56.53
74975;BME280;68459;50.836;19.138;2023-04-25T09:07:34;97643.06;;;11.41;57.23
74975;BME280;68459;50.836;19.138;2023-04-25T09:10:38;97642.56;;;11.44;57.52
74975;BME280;68459;50.836;19.138;2023-04-25T09:13:45;97654.84;;;11.57;56.80
74975;BME280;68459;50.836;19.138;2023-04-25T09:17:04;97648.47;;;11.68;56.57
74975;BME280;68459;50.836;19.138;2023-04-25T09:20:22;97646.88;;;11.72;56.93
74975;BME280;68459;50.836;19.138;2023-04-25T09:23:27;97652.84;;;11.74;56.60
74975;BME280;68459;50.836;19.138;2023-04-25T09:26:31;97646.59;;;11.68;56.50
74975;BME280;68459;50.836;19.138;2023-04-25T09:29:38;97653.56;;;11.64;56.63
74975;BME280;68459;50.836;19.138;2023-04-25T09:32:44;97651.09;;;11.58;56.52
74975;BME280;68459;50.836;19.138;2023-04-25T09:35:48;97647.91;;;11.66;56.23
74975;BME280;68459;50.836;19.138;2023-04-25T09:39:12;97641.56;;;11.77;55.95
74975;BME280;68459;50.836;19.138;2023-04-25T09:42:26;97645.06;;;11.77;56.32
74975;BME280;68459;50.836;19.138;2023-04-25T09:45:40;97648.09;;;11.81;54.51
74975;BME280;68459;50.836;19.138;2023-04-25T09:48:50;97645.28;;;11.98;55.57
74975;BME280;68459;50.836;19.138;2023-04-25T09:52:14;97649.88;;;12.34;55.14
74975;BME280;68459;50.836;19.138;2023-04-25T09:55:32;97645.41;;;12.50;54.72
74975;BME280;68459;50.836;19.138;2023-04-25T09:58:39;97641.06;;;12.49;54.41
74975;BME280;68459;50.836;19.138;2023-04-25T10:01:46;97647.50;;;12.43;54.64
74975;BME280;68459;50.836;19.138;2023-04-25T10:05:02;97633.97;;;12.43;54.00
74975;BME280;68459;50.836;19.138;2023-04-25T10:08:15;97645.91;;;12.47;54.03
74975;BME280;68459;50.836;19.138;2023-04-25T10:11:20;97654.03;;;12.47;53.71
74975;BME280;68459;50.836;19.138;2023-04-25T10:14:29;97645.94;;;12.52;53.88
74975;BME280;68459;50.836;19.138;2023-04-25T10:17:35;97638.66;;;12.58;52.79
74975;BME280;68459;50.836;19.138;2023-04-25T10:20:38;97646.59;;;12.69;53.09
74975;BME280;68459;50.836;19.138;2023-04-25T10:23:43;97646.72;;;12.90;52.57
74975;BME280;68459;50.836;19.138;2023-04-25T10:26:48;97644.84;;;13.00;50.92
74975;BME280;68459;50.836;19.138;2023-04-25T10:34:05;97637.50;;;12.91;51.23
74975;BME280;68459;50.836;19.138;2023-04-25T10:37:09;97630.41;;;12.79;51.20
74975;BME280;68459;50.836;19.138;2023-04-25T10:40:14;97632.56;;;12.77;50.71
74975;BME280;68459;50.836;19.138;2023-04-25T10:43:38;97635.09;;;12.99;50.58
74975;BME280;68459;50.836;19.138;2023-04-25T10:46:44;97646.44;;;12.96;50.00
74975;BME280;68459;50.836;19.138;2023-04-25T10:49:50;97637.78;;;12.94;50.58
74975;BME280;68459;50.836;19.138;2023-04-25T10:52:54;97638.91;;;13.08;49.86
74975;BME280;68459;50.836;19.138;2023-04-25T10:55:57;97628.22;;;13.29;50.46
74975;BME280;68459;50.836;19.138;2023-04-25T10:59:09;97632.31;;;13.41;49.22
74975;BME280;68459;50.836;19.138;2023-04-25T11:02:14;97638.53;;;13.37;49.88
74975;BME280;68459;50.836;19.138;2023-04-25T11:05:23;97634.97;;;13.26;49.43
74975;BME280;68459;50.836;19.138;2023-04-25T11:08:48;97645.97;;;13.09;49.12
74975;BME280;68459;50.836;19.138;2023-04-25T11:11:54;97631.06;;;13.02;49.79
74975;BME280;68459;50.836;19.138;2023-04-25T11:15:00;97632.44;;;13.09;49.43
74975;BME280;68459;50.836;19.138;2023-04-25T11:18:06;97636.69;;;12.95;50.12
74975;BME280;68459;50.836;19.138;2023-04-25T11:21:13;97639.97;;;12.97;49.63
74975;BME280;68459;50.836;19.138;2023-04-25T11:24:17;97642.97;;;13.06;49.08
74975;BME280;68459;50.836;19.138;2023-04-25T11:27:21;97641.16;;;13.22;49.67
74975;BME280;68459;50.836;19.138;2023-04-25T11:30:27;97650.19;;;13.42;48.93
74975;BME280;68459;50.836;19.138;2023-04-25T11:33:32;97648.56;;;13.41;48.86
74975;BME280;68459;50.836;19.138;2023-04-25T11:36:38;97637.59;;;13.11;48.67
74975;BME280;68459;50.836;19.138;2023-04-25T11:39:44;97639.66;;;12.89;49.36
74975;BME280;68459;50.836;19.138;2023-04-25T11:42:49;97640.13;;;12.75;49.21
74975;BME280;68459;50.836;19.138;2023-04-25T11:45:56;97640.66;;;12.72;49.44
74975;BME280;68459;50.836;19.138;2023-04-25T11:48:59;97647.91;;;12.67;48.95
74975;BME280;68459;50.836;19.138;2023-04-25T11:52:06;97644.13;;;12.68;48.85
74975;BME280;68459;50.836;19.138;2023-04-25T11:55:13;97635.19;;;12.67;48.49
74975;BME280;68459;50.836;19.138;2023-04-25T11:58:18;97642.81;;;12.70;49.29
74975;BME280;68459;50.836;19.138;2023-04-25T12:01:28;97647.09;;;12.66;49.38
74975;BME280;68459;50.836;19.138;2023-04-25T12:04:36;97634.13;;;12.63;49.51
74975;BME280;68459;50.836;19.138;2023-04-25T12:07:42;97644.34;;;12.56;49.26
74975;BME280;68459;50.836;19.138;2023-04-25T12:10:46;97652.44;;;12.56;49.24
74975;BME280;68459;50.836;19.138;2023-04-25T12:13:51;97639.88;;;12.35;49.28
74975;BME280;68459;50.836;19.138;2023-04-25T12:16:57;97639.88;;;12.35;48.65
74975;BME280;68459;50.836;19.138;2023-04-25T12:20:07;97644.72;;;12.33;49.06
74975;BME280;68459;50.836;19.138;2023-04-25T12:23:13;97637.63;;;12.27;49.37
74975;BME280;68459;50.836;19.138;2023-04-25T12:26:18;97645.81;;;12.32;49.44
74975;BME280;68459;50.836;19.138;2023-04-25T12:29:24;97643.16;;;12.37;48.08
74975;BME280;68459;50.836;19.138;2023-04-25T12:32:36;97654.53;;;12.44;48.38
74975;BME280;68459;50.836;19.138;2023-04-25T12:35:40;97645.16;;;12.57;48.56
74975;BME280;68459;50.836;19.138;2023-04-25T12:38:46;97647.41;;;12.70;48.19
74975;BME280;68459;50.836;19.138;2023-04-25T12:41:51;97643.94;;;12.79;48.45
74975;BME280;68459;50.836;19.138;2023-04-25T12:44:56;97649.66;;;12.88;48.34
74975;BME280;68459;50.836;19.138;2023-04-25T12:47:59;97658.06;;;12.92;48.06
74975;BME280;68459;50.836;19.138;2023-04-25T12:51:05;97646.88;;;12.73;48.28
74975;BME280;68459;50.836;19.138;2023-04-25T12:54:10;97654.59;;;12.54;48.25
74975;BME280;68459;50.836;19.138;2023-04-25T12:57:14;97642.31;;;12.36;48.65
74975;BME280;68459;50.836;19.138;2023-04-25T13:00:18;97642.97;;;12.17;49.25
74975;BME280;68459;50.836;19.138;2023-04-25T13:03:22;97651.50;;;11.98;49.62
74975;BME280;68459;50.836;19.138;2023-04-25T13:06:26;97642.34;;;12.04;49.72
74975;BME280;68459;50.836;19.138;2023-04-25T13:09:31;97653.78;;;12.17;49.28
74975;BME280;68459;50.836;19.138;2023-04-25T13:12:35;97649.00;;;12.24;49.55
74975;BME280;68459;50.836;19.138;2023-04-25T13:15:39;97638.25;;;12.34;49.95
74975;BME280;68459;50.836;19.138;2023-04-25T13:18:43;97643.72;;;12.44;49.34
74975;BME280;68459;50.836;19.138;2023-04-25T13:21:47;97642.66;;;12.45;49.03
74975;BME280;68459;50.836;19.138;2023-04-25T13:24:52;97638.91;;;12.51;49.08
74975;BME280;68459;50.836;19.138;2023-04-25T13:27:55;97645.41;;;12.55;48.76
74975;BME280;68459;50.836;19.138;2023-04-25T13:30:59;97649.19;;;12.54;49.45
74975;BME280;68459;50.836;19.138;2023-04-25T13:34:03;97653.28;;;12.57;49.39
74975;BME280;68459;50.836;19.138;2023-04-25T13:37:07;97654.84;;;12.53;49.52
74975;BME280;68459;50.836;19.138;2023-04-25T13:40:12;97646.22;;;12.56;49.04
74975;BME280;68459;50.836;19.138;2023-04-25T13:43:16;97649.94;;;12.44;49.73
74975;BME280;68459;50.836;19.138;2023-04-25T13:46:20;97644.22;;;12.41;49.33
74975;BME280;68459;50.836;19.138;2023-04-25T13:49:43;97652.94;;;12.48;48.54
74975;BME280;68459;50.836;19.138;2023-04-25T13:52:47;97650.19;;;12.38;49.52
74975;BME280;68459;50.836;19.138;2023-04-25T13:55:52;97646.09;;;12.35;49.01
74975;BME280;68459;50.836;19.138;2023-04-25T13:58:55;97650.47;;;12.41;49.97
74975;BME280;68459;50.836;19.138;2023-04-25T14:01:59;97639.94;;;12.45;49.75
74975;BME280;68459;50.836;19.138;2023-04-25T14:05:04;97645.13;;;12.52;49.21
74975;BME280;68459;50.836;19.138;2023-04-25T14:08:09;97649.22;;;12.59;49.14
74975;BME280;68459;50.836;19.138;2023-04-25T14:11:15;97647.66;;;12.63;49.41
74975;BME280;68459;50.836;19.138;2023-04-25T14:14:20;97643.31;;;12.62;48.99
74975;BME280;68459;50.836;19.138;2023-04-25T14:17:24;97648.13;;;12.55;49.17
74975;BME280;68459;50.836;19.138;2023-04-25T14:20:28;97653.47;;;12.45;49.83
74975;BME280;68459;50.836;19.138;2023-04-25T14:23:32;97652.59;;;12.39;49.52
74975;BME280;68459;50.836;19.138;2023-04-25T14:26:37;97652.53;;;12.29;49.29
74975;BME280;68459;50.836;19.138;2023-04-25T14:29:42;97659.00;;;12.28;49.00
74975;BME280;68459;50.836;19.138;2023-04-25T14:32:48;97658.94;;;12.18;49.03
74975;BME280;68459;50.836;19.138;2023-04-25T14:35:52;97658.06;;;12.12;49.30
74975;BME280;68459;50.836;19.138;2023-04-25T14:38:56;97668.88;;;12.12;49.52
74975;BME280;68459;50.836;19.138;2023-04-25T14:42:01;97658.94;;;12.18;49.45
74975;BME280;68459;50.836;19.138;2023-04-25T14:45:06;97661.78;;;12.33;49.54
74975;BME280;68459;50.836;19.138;2023-04-25T14:48:11;97662.97;;;12.47;49.81
74975;BME280;68459;50.836;19.138;2023-04-25T14:51:15;97672.47;;;12.55;49.08
74975;BME280;68459;50.836;19.138;2023-04-25T14:54:19;97672.47;;;12.55;49.27
74975;BME280;68459;50.836;19.138;2023-04-25T14:57:24;97665.53;;;12.69;48.84
74975;BME280;68459;50.836;19.138;2023-04-25T15:00:28;97665.91;;;12.88;48.46
74975;BME280;68459;50.836;19.138;2023-04-25T15:03:33;97666.81;;;13.09;48.61
74975;BME280;68459;50.836;19.138;2023-04-25T15:06:38;97666.38;;;13.32;48.29
74975;BME280;68459;50.836;19.138;2023-04-25T15:09:41;97670.22;;;13.41;47.95
74975;BME280;68459;50.836;19.138;2023-04-25T15:12:47;97671.38;;;13.66;47.88
74975;BME280;68459;50.836;19.138;2023-04-25T15:15:50;97673.34;;;13.96;46.80
74975;BME280;68459;50.836;19.138;2023-04-25T15:18:56;97683.38;;;14.05;46.75
74975;BME280;68459;50.836;19.138;2023-04-25T15:21:59;97672.78;;;14.04;46.19
74975;BME280;68459;50.836;19.138;2023-04-25T15:25:04;97671.97;;;13.93;46.53
74975;BME280;68459;50.836;19.138;2023-04-25T15:28:10;97681.19;;;13.82;46.51
74975;BME280;68459;50.836;19.138;2023-04-25T15:31:16;97675.75;;;13.82;47.07
74975;BME280;68459;50.836;19.138;2023-04-25T15:34:20;97676.28;;;13.89;46.79
74975;BME280;68459;50.836;19.138;2023-04-25T15:37:24;97664.91;;;13.92;46.90
74975;BME280;68459;50.836;19.138;2023-04-25T15:40:28;97672.78;;;14.04;46.60
74975;BME280;68459;50.836;19.138;2023-04-25T15:43:33;97675.22;;;14.25;46.77
74975;BME280;68459;50.836;19.138;2023-04-25T15:46:39;97672.53;;;14.36;46.21
74975;BME280;68459;50.836;19.138;2023-04-25T15:49:43;97667.38;;;14.39;45.93
74975;BME280;68459;50.836;19.138;2023-04-25T15:52:47;97675.81;;;14.58;45.64
74975;BME280;68459;50.836;19.138;2023-04-25T15:55:51;97671.94;;;14.79;45.60
74975;BME280;68459;50.836;19.138;2023-04-25T15:58:56;97674.66;;;14.89;45.44
74975;BME280;68459;50.836;19.138;2023-04-25T16:02:00;97679.59;;;14.62;45.36
74975;BME280;68459;50.836;19.138;2023-04-25T16:05:04;97689.34;;;14.33;45.31
74975;BME280;68459;50.836;19.138;2023-04-25T16:08:10;97670.59;;;13.85;45.62
74975;BME280;68459;50.836;19.138;2023-04-25T16:11:13;97674.84;;;13.46;46.54
74975;BME280;68459;50.836;19.138;2023-04-25T16:14:19;97671.16;;;13.10;46.88
74975;BME280;68459;50.836;19.138;2023-04-25T16:17:22;97661.53;;;12.82;48.02
74975;BME280;68459;50.836;19.138;2023-04-25T16:20:26;97669.81;;;12.65;47.94
74975;BME280;68459;50.836;19.138;2023-04-25T16:23:30;97675.16;;;12.55;47.85
74975;BME280;68459;50.836;19.138;2023-04-25T16:26:34;97683.78;;;12.47;47.92